الصفحة الرئيسية
METAR-TAF:

METAR-TAF

مطار :

Yap, مايكرونيزيا

دائرة عرض: 09-29N, خط طول: 138-05E, ارتفاع: 28 متر

مراقبة الطقس الحالي

تاريخ ووقت الإصدار 33 دقيقة قبل الساعة 02:55UTC
ريح 11 عقدة من الشرق
درجة الحرارة 32°درجة مئوية
الرطوبة 71%
ضغط 1010 hPa
الرؤية: 19.3 كم
غيوم قليلة على ارتفاع 1800 قدم
غيوم مفككة على ارتفاع 30000 قدم

METAR: PTYA 250255Z 10011KT 12SM FEW018 BKN300 32/26 A2983 RMK SLP101 8/101 T03230262 57008

زمن: 13:28 (03:28 UTC)

توقعات

تاريخ ووقت الإصدار 3ساعات و 53 دقيقة قبل الساعة 23:35UTC
التوقعات صالحة من25 الساعة 00 UTC إلى 25 الساعة 24 UTC
ريح 11 عقدة من الشرق
الرؤية: 10 كم
غيوم قليلة على ارتفاع 1500 قدم
غيوم متفرقة على ارتفاع 11000 قدم
زخات في الجوار,

TAF: PTYA 242335Z 2500/2524 09011KT P6SM VCSH FEW015 SCT110

أرصاد الطقس والتوقعات من أكثر من 4000 مطار (تقارير الطقس للمطار METAR والتنبؤ بالطقس بالمطارTAF).

المحطات المتاحة هي النقط الصفراء والحمراء على الخريطة.

حرك المؤشر فوق النقطة لمعرفة اسم المحطة.

ثم انقر لمعرفة أرصاد وتوقعات الطقس.

لتغيير الخارطة: اضغط على الأزرار الخضراء مع رمز الصليب الأسود للتكبير. على الزر الأخضر مع شرطة للتصغير، أو على الأسهم الخضراء للخرائط المجاورة.


METAR-TAF: